Time;durP1;ratioP1;P1;durP2;ratioP2;P2;SDS_P1;SDS_P2;PMS_P1;PMS_P2;Temp;Humidity;BMP_temperature;BMP_pressure;BME280_temperature;BME280_humidity;BME280_pressure;Samples;Min_cycle;Max_cycle;Signal;HPM_P1;HPM_P2
2024/03/24 11:12:13;;;;;;;1999.90;999.90;;;;;;;17.36;40.70;95416.97;7430583;19;20858;-77
2024/03/24 11:14:38;;;;;;;1999.90;999.90;;;;;;;17.56;43.69;95420.59;7430843;19;20006;-77
2024/03/24 11:17:04;;;;;;;1999.90;999.90;;;;;;;17.30;43.30;95407.75;7429156;19;20445;-78
2024/03/24 11:19:30;;;;;;;1999.90;999.90;;;;;;;17.35;41.80;95402.94;7430191;19;20012;-78
2024/03/24 11:21:59;;;;;;;1999.90;999.90;;;;;;;17.05;42.96;95401.84;7431468;19;19994;-78
2024/03/24 11:24:28;;;;;;;1999.90;999.90;;;;;;;17.26;41.00;95403.69;7431035;19;19994;-79
2024/03/24 11:26:58;;;;;;;1999.90;999.90;;;;;;;17.41;43.37;95388.38;7430830;19;20002;-78
2024/03/24 11:29:45;;;;;;;1999.90;999.90;;;;;;;17.34;43.58;95395.13;7430861;19;19991;-78
2024/03/24 11:32:17;;;;;;;1999.90;999.90;;;;;;;17.46;43.81;95387.97;7430460;19;20002;-77
2024/03/24 11:34:52;;;;;;;1999.90;999.90;;;;;;;17.17;44.59;95390.31;7430564;19;20005;-78
2024/03/24 11:37:18;;;;;;;1999.90;999.90;;;;;;;17.30;45.27;95383.97;7430670;19;20333;-79
2024/03/24 11:39:46;;;;;;;1999.90;999.90;;;;;;;17.10;42.05;95380.38;7431426;19;20002;-79
2024/03/24 11:42:13;;;;;;;1999.90;999.90;;;;;;;17.02;42.52;95368.59;7430311;19;20003;-78
2024/03/24 11:44:40;;;;;;;1999.90;999.90;;;;;;;16.67;42.39;95369.69;7430311;19;19999;-78
2024/03/24 11:47:05;;;;;;;1999.90;999.90;;;;;;;16.96;44.24;95357.69;7431519;19;19998;-78
2024/03/24 11:49:46;;;;;;;1999.90;999.90;;;;;;;16.73;40.69;95363.06;7429946;19;20205;-78
2024/03/24 11:52:16;;;;;;;1999.90;999.90;;;;;;;16.79;42.44;95352.84;7430141;19;19998;-79
2024/03/24 11:54:43;;;;;;;1999.90;999.90;;;;;;;16.82;42.98;95353.56;7430227;19;19998;-78
2024/03/24 11:57:08;;;;;;;1999.90;999.90;;;;;;;17.04;44.12;95360.56;7430664;19;19990;-79
2024/03/24 11:59:34;;;;;;;1999.90;999.90;;;;;;;17.01;42.10;95351.06;7429884;19;19994;-78
2024/03/24 12:01:59;;;;;;;1999.90;999.90;;;;;;;16.84;42.56;95346.34;7429741;19;20016;-78
2024/03/24 12:04:26;;;;;;;1999.90;999.90;;;;;;;16.85;41.60;95351.50;7429640;19;20009;-77
2024/03/24 12:06:51;;;;;;;1999.90;999.90;;;;;;;16.51;40.59;95355.09;7429709;19;20001;-78
2024/03/24 12:09:17;;;;;;;1999.90;999.90;;;;;;;16.73;41.97;95363.91;7429480;19;20062;-78
2024/03/24 12:11:42;;;;;;;1999.90;999.90;;;;;;;16.82;40.94;95356.22;7426755;19;20002;-78
2024/03/24 12:14:08;;;;;;;1999.90;999.90;;;;;;;16.68;44.05;95351.06;7429660;19;19998;-78
2024/03/24 12:16:34;;;;;;;1999.90;999.90;;;;;;;16.72;41.97;95345.53;7429135;19;20003;-79
2024/03/24 12:19:00;;;;;;;1999.90;999.90;;;;;;;16.57;42.25;95343.19;7429020;19;20003;-78
2024/03/24 12:21:28;;;;;;;1999.90;999.90;;;;;;;16.64;41.35;95341.72;7426486;19;19998;-78
2024/03/24 12:23:54;;;;;;;1999.90;999.90;;;;;;;16.76;40.27;95339.03;7399881;19;20068;-78
2024/03/24 12:26:20;;;;;;;1999.90;999.90;;;;;;;16.91;41.58;95342.22;7400352;19;19999;-78
2024/03/24 12:28:58;;;;;;;1999.90;999.90;;;;;;;16.57;41.53;95351.13;7400231;19;19999;-77
2024/03/24 12:31:23;;;;;;;1999.90;999.90;;;;;;;16.83;41.19;95347.31;7399213;19;20003;-78
2024/03/24 12:33:49;;;;;;;1999.90;999.90;;;;;;;16.82;39.51;95341.19;7399972;19;20560;-78
2024/03/24 12:36:16;;;;;;;1999.90;999.90;;;;;;;16.86;39.85;95339.13;7403217;19;19994;-78
2024/03/24 12:38:45;;;;;;;1999.90;999.90;;;;;;;16.78;39.97;95337.13;7404026;19;20009;-78
2024/03/24 12:41:23;;;;;;;1999.90;999.90;;;;;;;16.85;39.09;95340.94;7401717;19;20026;-78
2024/03/24 12:43:54;;;;;;;1999.90;999.90;;;;;;;16.97;39.99;95332.94;7399657;19;19998;-79
2024/03/24 12:46:27;;;;;;;1999.90;999.90;;;;;;;17.01;39.38;95339.69;7399568;19;20003;-77
2024/03/24 12:48:53;;;;;;;1999.90;999.90;;;;;;;16.85;39.08;95340.94;7399814;19;20002;-74
2024/03/24 12:51:19;;;;;;;1999.90;999.90;;;;;;;16.93;39.94;95329.75;7397721;19;20376;-78
2024/03/24 12:53:53;;;;;;;1999.90;999.90;;;;;;;16.95;39.38;95332.25;7399346;19;20485;-79
2024/03/24 12:56:20;;;;;;;1999.90;999.90;;;;;;;16.78;38.33;95332.69;7400737;19;20005;-74
2024/03/24 12:58:47;;;;;;;1999.90;999.90;;;;;;;16.88;37.87;95327.47;7399185;19;20369;-75
2024/03/24 13:01:18;;;;;;;1999.90;999.90;;;;;;;16.95;38.72;95321.69;7399605;19;20038;-75
2024/03/24 13:03:45;;;;;;;1999.90;999.90;;;;;;;16.89;37.61;95315.13;7399184;19;20010;-75
2024/03/24 13:06:16;;;;;;;1999.90;999.90;;;;;;;17.17;37.81;95312.84;7399043;19;20058;-75
2024/03/24 13:08:46;;;;;;;1999.90;999.90;;;;;;;17.37;37.36;95313.78;7399242;19;20003;-74
2024/03/24 13:11:12;;;;;;;;;;;;;;;17.03;35.29;95308.66;7397769;19;20003;-75
2024/03/24 13:13:39;;;;;;;1999.90;999.90;;;;;;;17.12;36.93;95309.72;7395720;19;19911;-75
2024/03/24 13:16:07;;;;;;;1999.90;999.90;;;;;;;16.98;36.09;95300.31;7401917;19;20006;-75
2024/03/24 13:18:46;;;;;;;1999.90;999.90;;;;;;;17.36;36.53;95305.97;7399307;19;19999;-75
2024/03/24 13:21:16;;;;;;;1999.90;999.90;;;;;;;17.04;35.94;95287.41;7398433;19;20003;-75
2024/03/24 13:23:46;;;;;;;1999.90;999.90;;;;;;;17.25;33.92;95296.34;7398508;19;20002;-75
2024/03/24 13:26:14;;;;;;;1999.90;999.90;;;;;;;16.99;36.14;95292.25;7402553;19;20474;-76
2024/03/24 13:28:39;;;;;;;1999.90;999.90;;;;;;;17.04;34.64;95290.06;7398452;19;20460;-69
2024/03/24 13:31:05;;;;;;;1999.90;999.90;;;;;;;17.23;35.70;95291.19;7397883;19;20017;-70
2024/03/24 13:33:31;;;;;;;1999.90;999.90;;;;;;;17.33;35.58;95288.59;7398265;19;19995;-70
2024/03/24 13:35:56;;;;;;;20.83;19.52;;;;;;;17.21;39.87;95295.75;7085165;19;77731;-72
